Time;durP1;ratioP1;P1;durP2;ratioP2;P2;SDS_P1;SDS_P2;PMS_P1;PMS_P2;Temp;Humidity;BMP_temperature;BMP_pressure;BME280_temperature;BME280_humidity;BME280_pressure;Samples;Min_cycle;Max_cycle;Signal;HPM_P1;HPM_P2
2022/11/03 00:00:09;;;;;;;18.20;10.38;;;;;;;13.71;59.93;100481.19;4427931;32;20164;-95
2022/11/03 00:02:34;;;;;;;17.27;9.90;;;;;;;13.57;59.92;100473.81;4406755;32;20110;-95
2022/11/03 00:06:03;;;;;;;19.77;9.93;;;;;;;13.61;59.93;100475.44;4428678;32;20108;-96
2022/11/03 00:07:45;;;;;;;14.98;8.77;;;;;;;13.69;59.93;100475.16;4443275;32;20085;-94
2022/11/03 00:10:10;;;;;;;18.83;9.75;;;;;;;13.49;59.93;100466.25;4423831;32;20124;-96
2022/11/03 00:12:36;;;;;;;19.85;9.77;;;;;;;13.55;59.92;100474.78;4413843;32;20157;-96
2022/11/03 00:16:12;;;;;;;16.20;8.88;;;;;;;13.47;59.92;100469.78;4441183;32;20089;-96
2022/11/03 00:18:30;;;;;;;18.50;9.40;;;;;;;13.52;59.93;100478.38;4446767;32;20150;-95
2022/11/03 00:20:56;;;;;;;17.92;10.63;;;;;;;13.72;59.95;100472.44;4428893;32;20113;-96
2022/11/03 00:23:26;;;;;;;18.45;9.68;;;;;;;13.55;59.93;100475.62;4443001;32;20065;-95
2022/11/03 00:25:52;;;;;;;18.92;10.35;;;;;;;13.49;59.93;100471.47;4430987;32;20099;-96
2022/11/03 00:28:23;;;;;;;18.65;9.75;;;;;;;13.56;59.92;100472.13;4453345;32;20112;-96
2022/11/03 00:30:50;;;;;;;21.58;9.55;;;;;;;13.27;59.92;100474.81;4434808;32;20097;-96
2022/11/03 00:33:15;;;;;;;17.15;10.75;;;;;;;13.38;59.91;100477.94;4422014;32;20092;-95
2022/11/03 00:35:43;;;;;;;15.63;8.80;;;;;;;13.43;59.92;100470.78;4446517;32;20210;-96
2022/11/03 00:38:23;;;;;;;19.45;8.35;;;;;;;13.39;59.92;100472.66;4436019;32;20083;-96
2022/11/03 00:41:15;;;;;;;14.18;8.65;;;;;;;13.31;59.92;100471.19;4452163;32;20105;-96
2022/11/03 00:44:03;;;;;;;17.23;8.00;;;;;;;13.35;59.92;100470.19;4464309;32;20104;-96
2022/11/03 00:46:34;;;;;;;16.52;7.90;;;;;;;13.26;59.92;100471.34;4446782;32;20111;-96
2022/11/03 00:49:00;;;;;;;15.32;7.62;;;;;;;13.44;59.92;100469.88;4443785;32;20099;-96
2022/11/03 00:51:26;;;;;;;14.07;7.60;;;;;;;13.25;59.91;100468.75;4416647;32;20131;-95
2022/11/03 00:53:52;;;;;;;17.12;7.95;;;;;;;13.33;59.91;100469.38;4422784;32;20120;-96
2022/11/03 00:56:28;;;;;;;15.15;7.45;;;;;;;13.38;59.92;100470.09;4442136;32;20073;-96
2022/11/03 00:58:54;;;;;;;14.32;7.47;;;;;;;13.21;59.91;100468.84;4420623;32;20117;-96
2022/11/03 01:01:27;;;;;;;11.05;6.90;;;;;;;13.28;59.91;100473.91;4428510;32;20158;-96
2022/11/03 01:06:49;;;;;;;12.50;6.43;;;;;;;13.36;59.92;100458.81;4431165;32;20151;-96
2022/11/03 01:09:37;;;;;;;18.77;6.93;;;;;;;13.31;59.91;100461.59;4423634;32;20151;-96
2022/11/03 01:12:07;;;;;;;12.60;7.12;;;;;;;13.39;59.92;100463.94;4444742;32;20101;-96
2022/11/03 01:14:43;;;;;;;15.48;7.07;;;;;;;13.25;59.91;100456.56;4452316;32;20760;-96
2022/11/03 01:17:11;;;;;;;14.80;6.50;;;;;;;13.36;59.92;100453.59;4449913;32;20454;-96
2022/11/03 01:19:36;;;;;;;13.80;6.53;;;;;;;13.42;59.92;100448.16;4420447;32;20151;-96
2022/11/03 01:22:02;;;;;;;16.48;6.60;;;;;;;13.55;59.92;100444.25;4430598;32;20117;-96
2022/11/03 01:24:28;;;;;;;14.38;4.97;;;;;;;13.58;59.93;100444.16;4444788;32;20163;-96
2022/11/03 01:26:53;;;;;;;11.80;4.85;;;;;;;13.49;59.92;100437.47;4428540;32;20116;-96
2022/11/03 01:29:19;;;;;;;9.73;3.67;;;;;;;13.45;59.92;100440.22;4430905;32;20168;-96
2022/11/03 01:31:44;;;;;;;8.30;3.65;;;;;;;13.33;59.91;100432.78;4428712;32;20152;-96
2022/11/03 01:34:17;;;;;;;8.55;3.30;;;;;;;13.20;59.91;100442.75;4442110;32;20109;-96
2022/11/03 01:36:42;;;;;;;13.55;3.15;;;;;;;13.17;59.90;100442.84;4431278;32;20085;-96
2022/11/03 01:39:10;;;;;;;9.45;3.75;;;;;;;13.10;59.90;100441.31;4420769;32;20464;-96
2022/11/03 01:41:35;;;;;;;9.23;3.12;;;;;;;13.10;59.90;100443.94;4431095;32;20489;-96
2022/11/03 01:44:24;;;;;;;5.53;3.10;;;;;;;13.30;59.91;100436.34;4444289;32;20105;-96
2022/11/03 01:47:23;;;;;;;14.45;4.03;;;;;;;13.06;59.90;100443.19;4431318;32;20057;-96
2022/11/03 01:49:54;;;;;;;9.90;3.33;;;;;;;13.17;59.90;100441.09;4435763;32;20108;-96
2022/11/03 01:52:39;;;;;;;7.43;2.95;;;;;;;13.20;59.91;100442.75;4429396;32;20161;-96
2022/11/03 01:55:19;;;;;;;9.63;2.90;;;;;;;13.19;59.90;100446.28;4444026;32;20105;-96
2022/11/03 01:57:48;;;;;;;6.18;2.97;;;;;;;13.37;59.92;100437.00;4428296;32;20093;-96
2022/11/03 02:00:14;;;;;;;5.43;2.90;;;;;;;13.33;59.91;100438.88;4434748;32;20357;-96
2022/11/03 02:02:40;;;;;;;8.60;2.70;;;;;;;13.20;59.91;100435.78;4414914;32;20139;-95
2022/11/03 02:05:06;;;;;;;6.25;2.75;;;;;;;13.26;59.91;100426.06;4416003;32;20126;-96
2022/11/03 02:07:37;;;;;;;8.98;3.67;;;;;;;13.22;59.91;100430.50;4416429;32;20504;-95
2022/11/03 02:10:03;;;;;;;10.20;3.22;;;;;;;13.27;59.92;100428.62;4430815;32;20622;-96
2022/11/03 02:12:29;;;;;;;5.85;2.95;;;;;;;13.12;59.91;100429.91;4419848;32;20136;-96
2022/11/03 02:15:39;;;;;;;7.85;3.28;;;;;;;13.20;59.91;100432.31;4430602;32;20121;-96
2022/11/03 02:18:05;;;;;;;6.00;3.00;;;;;;;13.15;59.90;100439.41;4452180;32;20123;-96
2022/11/03 02:20:30;;;;;;;7.05;2.72;;;;;;;12.98;59.90;100436.47;4431739;32;20111;-96
2022/11/03 02:23:08;;;;;;;6.55;2.80;;;;;;;13.11;59.89;100443.03;4432504;32;20134;-96
2022/11/03 02:26:13;;;;;;;7.20;3.33;;;;;;;13.10;59.90;100436.94;4465655;32;20155;-96
2022/11/03 02:28:39;;;;;;;9.40;2.95;;;;;;;12.76;59.88;100442.34;4443102;32;20066;-96
2022/11/03 02:31:32;;;;;;;5.35;2.62;;;;;;;12.66;59.88;100448.75;4407292;32;20096;-94
2022/11/03 02:34:06;;;;;;;7.07;3.17;;;;;;;12.58;59.86;100451.59;4421892;32;20106;-96
2022/11/03 02:36:42;;;;;;;6.82;3.10;;;;;;;12.69;59.88;100440.81;4409491;32;20747;-96
2022/11/03 02:39:15;;;;;;;5.32;2.95;;;;;;;12.60;59.88;100446.31;4430602;32;20105;-96
2022/11/03 02:41:41;;;;;;;8.73;3.58;;;;;;;12.27;59.85;100458.56;4418262;32;20085;-96
2022/11/03 02:44:10;;;;;;;7.32;3.33;;;;;;;12.08;59.85;100453.00;4415253;32;20140;-96
2022/11/03 02:46:40;;;;;;;12.18;4.37;;;;;;;12.11;59.85;100447.69;4406478;32;20148;-96
2022/11/03 02:49:05;;;;;;;8.57;3.55;;;;;;;12.03;59.84;100447.03;4418412;32;20062;-96
2022/11/03 02:51:33;;;;;;;9.55;3.45;;;;;;;11.75;59.84;100444.25;4419879;32;20089;-96
2022/11/03 02:54:15;;;;;;;7.55;3.97;;;;;;;11.89;59.83;100451.78;4432595;32;20077;-96
2022/11/03 02:57:00;;;;;;;11.10;4.00;;;;;;;11.94;59.84;100442.94;4445756;32;20069;-96
2022/11/03 02:59:27;;;;;;;9.75;4.12;;;;;;;12.12;59.85;100432.91;4424586;32;20053;-96
2022/11/03 03:02:00;;;;;;;9.80;4.62;;;;;;;12.15;59.85;100430.19;4421928;32;20090;-96
2022/11/03 03:04:30;;;;;;;9.75;3.78;;;;;;;12.11;59.85;100433.78;4407448;32;20179;-96
2022/11/03 03:07:02;;;;;;;9.75;4.32;;;;;;;12.04;59.84;100432.22;4409484;32;20149;-96
2022/11/03 03:09:48;;;;;;;5.60;3.60;;;;;;;11.90;59.83;100435.22;4433875;32;20100;-96
2022/11/03 03:12:15;;;;;;;7.70;3.92;;;;;;;11.89;59.83;100429.16;4410793;32;20122;-96
2022/11/03 03:14:41;;;;;;;9.23;4.60;;;;;;;11.80;59.83;100425.91;4418705;32;20109;-96
2022/11/03 03:17:23;;;;;;;9.27;4.15;;;;;;;11.59;59.82;100424.69;4405692;32;20131;-96
2022/11/03 03:20:00;;;;;;;9.18;3.75;;;;;;;11.73;59.83;100430.41;4425210;32;20089;-96
2022/11/03 03:22:52;;;;;;;12.10;4.50;;;;;;;11.81;59.83;100431.09;4430922;32;20076;-96
2022/11/03 03:25:28;;;;;;;9.93;3.87;;;;;;;11.80;59.83;100439.81;4443323;32;20127;-96
2022/11/03 03:27:57;;;;;;;8.05;3.75;;;;;;;11.49;59.81;100431.03;4414052;32;20133;-95
2022/11/03 03:30:22;;;;;;;8.00;4.13;;;;;;;11.35;59.80;100434.81;4438506;32;20127;-95
2022/11/03 03:32:48;;;;;;;9.07;4.55;;;;;;;11.43;59.81;100431.19;4429163;32;22189;-94
2022/11/03 03:35:19;;;;;;;10.13;4.87;;;;;;;11.48;59.81;100430.19;4438412;32;20443;-95
2022/11/03 03:37:46;;;;;;;8.27;4.32;;;;;;;11.32;59.81;100424.47;4430628;32;20497;-96
2022/11/03 03:40:15;;;;;;;8.25;4.37;;;;;;;11.37;59.81;100430.44;4436620;32;20057;-95
2022/11/03 03:42:40;;;;;;;10.65;4.55;;;;;;;11.37;59.81;100433.06;4426657;32;20070;-93
2022/11/03 03:45:06;;;;;;;9.95;4.40;;;;;;;11.28;59.80;100437.63;4420784;32;21154;-95
2022/11/03 03:48:44;;;;;;;8.68;4.03;;;;;;;11.29;59.79;100436.72;4425485;32;20096;-93
2022/11/03 03:51:10;;;;;;;6.87;3.65;;;;;;;11.30;59.80;100433.22;4378708;32;20892;-94
2022/11/03 03:54:12;;;;;;;8.10;3.92;;;;;;;11.26;59.80;100435.06;4427035;32;20703;-94
2022/11/03 03:57:05;;;;;;;8.77;4.43;;;;;;;11.15;59.79;100429.25;4426449;32;20101;-94
2022/11/03 03:59:30;;;;;;;6.80;3.87;;;;;;;10.90;59.78;100443.72;4430472;32;20131;-95
2022/11/03 04:01:56;;;;;;;10.57;4.18;;;;;;;10.98;59.78;100437.44;4429163;32;20426;-95
2022/11/03 04:04:22;;;;;;;11.00;4.25;;;;;;;11.08;59.80;100438.94;4442234;32;20731;-95
2022/11/03 04:06:47;;;;;;;16.25;4.50;;;;;;;11.15;59.79;100431.84;4428727;32;20165;-95
2022/11/03 04:09:12;;;;;;;10.48;5.20;;;;;;;11.13;59.79;100449.28;4420431;32;23632;-94
2022/11/03 04:22:52;;;;;;;9.55;4.43;;;;;;;10.56;59.76;100459.19;4434247;32;20146;-96
2022/11/03 04:25:18;;;;;;;6.43;4.10;;;;;;;10.58;59.76;100449.59;4429633;32;20192;-96
2022/11/03 04:27:43;;;;;;;15.93;5.40;;;;;;;10.38;59.75;100447.41;4416849;32;20374;-96
2022/11/03 04:30:17;;;;;;;10.43;4.62;;;;;;;10.42;59.76;100449.09;4427741;32;20131;-96
2022/11/03 04:32:44;;;;;;;14.52;4.43;;;;;;;10.19;59.75;100446.06;4434629;32;20750;-96
2022/11/03 04:35:16;;;;;;;10.75;4.30;;;;;;;10.13;59.74;100437.44;4444835;32;20119;-96
2022/11/03 04:37:42;;;;;;;13.10;5.40;;;;;;;10.43;59.76;100441.25;4421561;32;20528;-95
2022/11/03 04:40:12;;;;;;;10.55;5.15;;;;;;;10.21;59.74;100450.37;4448155;32;20093;-95
2022/11/03 04:42:38;;;;;;;10.68;4.45;;;;;;;10.31;59.75;100451.03;4438445;32;20089;-96
2022/11/03 04:45:11;;;;;;;10.40;3.90;;;;;;;10.21;59.74;100452.09;4432075;32;23611;-95
2022/11/03 04:47:36;;;;;;;8.40;4.12;;;;;;;10.04;59.74;100452.38;4418927;32;20142;-95
2022/11/03 04:50:02;;;;;;;10.38;4.18;;;;;;;9.98;59.73;100457.72;4421808;32;26153;-96
2022/11/03 04:52:28;;;;;;;6.72;4.05;;;;;;;9.89;59.73;100450.91;4434952;32;20154;-96
2022/11/03 04:54:53;;;;;;;8.00;4.43;;;;;;;10.07;59.73;100447.97;4415057;32;23298;-95
2022/11/03 04:57:18;;;;;;;10.35;4.25;;;;;;;9.97;59.73;100446.44;4424587;32;20920;-95
2022/11/03 04:59:45;;;;;;;8.73;4.15;;;;;;;10.14;59.74;100443.50;4430295;32;20144;-94
2022/11/03 05:02:19;;;;;;;9.80;3.87;;;;;;;10.02;59.73;100447.22;4429818;32;20097;-94
2022/11/03 05:04:44;;;;;;;9.25;4.37;;;;;;;10.05;59.74;100459.31;4430239;32;20140;-92
2022/11/03 05:07:31;;;;;;;9.48;5.00;;;;;;;9.94;59.73;100456.91;4427634;32;20149;-95
2022/11/03 05:09:57;;;;;;;8.70;3.62;;;;;;;10.20;59.75;100452.97;4431503;32;20792;-94
2022/11/03 05:12:22;;;;;;;8.10;3.90;;;;;;;10.05;59.74;100448.91;4427153;32;20101;-94
2022/11/03 05:14:48;;;;;;;7.82;3.55;;;;;;;10.03;59.74;100455.88;4418071;32;20469;-95
2022/11/03 05:17:26;;;;;;;8.15;3.37;;;;;;;10.04;59.74;100457.59;4406710;32;20470;-95
2022/11/03 05:19:55;;;;;;;7.25;3.40;;;;;;;10.05;59.74;100457.56;4436983;32;20108;-94
2022/11/03 05:22:21;;;;;;;7.82;3.60;;;;;;;10.28;59.75;100449.34;4429628;32;20092;-95
2022/11/03 05:24:46;;;;;;;7.62;3.17;;;;;;;10.36;59.75;100454.37;4428983;32;20123;-92
2022/11/03 05:27:18;;;;;;;9.43;3.60;;;;;;;10.16;59.74;100462.53;4425566;32;20101;-91
2022/11/03 05:29:43;;;;;;;10.45;3.83;;;;;;;10.42;59.75;100454.28;4420517;32;20093;-91
2022/11/03 05:32:13;;;;;;;8.63;4.15;;;;;;;10.25;59.75;100453.75;4440065;32;23626;-91
2022/11/03 05:34:43;;;;;;;10.68;5.35;;;;;;;10.12;59.74;100460.91;4425482;32;20104;-91
2022/11/03 05:37:17;;;;;;;14.52;5.37;;;;;;;10.03;59.74;100456.72;4436276;32;20131;-90
2022/11/03 05:39:44;;;;;;;13.02;5.45;;;;;;;10.29;59.75;100450.22;4440913;32;20128;-91
2022/11/03 05:42:24;;;;;;;13.77;5.65;;;;;;;10.20;59.74;100458.16;4430380;32;20119;-93
2022/11/03 05:44:49;;;;;;;;;;;;;;;10.34;59.75;100463.97;4422150;32;20434;-96
2022/11/03 05:47:31;;;;;;;14.13;5.07;;;;;;;10.19;59.75;100465.13;4453028;32;20011;-96
2022/11/03 05:50:00;;;;;;;11.63;4.28;;;;;;;10.12;59.74;100453.09;4464581;32;20093;-95
2022/11/03 05:52:44;;;;;;;11.80;4.15;;;;;;;10.15;59.74;100461.69;4430339;32;20093;-95
2022/11/03 05:55:32;;;;;;;7.97;4.20;;;;;;;10.20;59.74;100451.22;4445014;32;20097;-95
2022/11/03 05:58:23;;;;;;;10.27;4.03;;;;;;;10.14;59.74;100456.50;4436002;32;20078;-96
2022/11/03 06:00:55;;;;;;;8.07;3.53;;;;;;;10.19;59.75;100461.66;4451624;32;20074;-96
2022/11/03 06:03:34;;;;;;;10.43;4.23;;;;;;;10.21;59.74;100468.56;4452802;32;20080;-96
2022/11/03 06:06:27;;;;;;;10.30;4.53;;;;;;;10.38;59.75;100489.03;4462907;32;20053;-96
2022/11/03 06:09:25;;;;;;;11.23;4.30;;;;;;;10.51;59.76;100487.94;4467230;32;20092;-96
2022/11/03 06:17:06;;;;;;;9.38;4.35;;;;;;;10.58;59.76;100497.31;4430397;32;20102;-96
2022/11/03 06:19:37;;;;;;;13.27;4.47;;;;;;;10.66;59.77;100486.78;4417755;32;20834;-96
2022/11/03 06:22:27;;;;;;;36.17;6.70;;;;;;;10.72;59.77;100492.72;4416402;32;20071;-96
2022/11/03 06:25:49;;;;;;;38.10;6.50;;;;;;;10.87;59.78;100507.13;4421118;32;20164;-96
2022/11/03 06:28:26;;;;;;;13.50;4.85;;;;;;;11.14;59.79;100507.47;4410142;32;20055;-96
2022/11/03 06:30:57;;;;;;;18.23;5.60;;;;;;;11.27;59.80;100508.88;4408932;32;20098;-96
2022/11/03 06:33:26;;;;;;;16.08;5.15;;;;;;;11.30;59.79;100506.19;4420222;32;20109;-96
2022/11/03 06:36:39;;;;;;;8.90;4.53;;;;;;;11.27;59.80;100512.34;4419383;32;20119;-96
2022/11/03 06:39:25;;;;;;;10.93;5.28;;;;;;;11.24;59.80;100514.16;4434522;32;20142;-96
2022/11/03 06:41:56;;;;;;;11.52;5.37;;;;;;;11.50;59.81;100514.41;4425013;32;20066;-96
2022/11/03 06:44:30;;;;;;;12.57;5.57;;;;;;;11.54;59.82;100509.97;4436637;32;20109;-96
2022/11/03 06:47:32;;;;;;;11.05;5.30;;;;;;;11.65;59.82;100505.37;4438212;32;20076;-96
2022/11/03 06:50:48;;;;;;;11.77;5.47;;;;;;;11.92;59.84;100509.94;4444412;32;20103;-96
2022/11/03 06:53:34;;;;;;;11.52;5.28;;;;;;;12.05;59.84;100512.22;4445241;32;20379;-96
2022/11/03 06:56:30;;;;;;;9.55;5.68;;;;;;;12.29;59.86;100514.19;4423038;32;20086;-96
2022/11/03 06:58:59;;;;;;;9.73;5.60;;;;;;;12.44;59.87;100507.72;4423115;32;20211;-96
2022/11/03 07:02:19;;;;;;;11.88;5.12;;;;;;;12.50;59.88;100511.00;4425533;32;20091;-96
2022/11/03 07:05:33;;;;;;;14.30;5.87;;;;;;;12.66;59.88;100513.19;4436882;32;20120;-96
2022/11/03 07:08:23;;;;;;;21.02;6.07;;;;;;;12.90;59.89;100507.25;4437634;32;20140;-96
2022/11/03 07:11:33;;;;;;;11.00;5.55;;;;;;;13.13;59.91;100504.81;4437772;32;20933;-96
2022/11/03 07:14:39;;;;;;;9.43;4.95;;;;;;;13.18;59.90;100508.16;4438300;32;20082;-96
2022/11/03 07:17:27;;;;;;;12.73;5.57;;;;;;;13.17;59.90;100506.47;4423706;32;20122;-96
2022/11/03 07:20:37;;;;;;;11.65;5.97;;;;;;;13.44;59.92;100514.34;4424181;32;20135;-96
2022/11/03 07:23:53;;;;;;;11.63;5.80;;;;;;;13.56;59.92;100511.34;4444644;32;20089;-96
2022/11/03 07:27:00;;;;;;;12.45;5.80;;;;;;;13.43;59.92;100518.72;4439794;32;20061;-96
2022/11/03 07:29:42;;;;;;;17.92;7.20;;;;;;;13.64;59.93;100516.34;4440466;32;20093;-96
2022/11/03 07:33:19;;;;;;;14.75;6.07;;;;;;;13.92;59.94;100508.41;4448963;32;20117;-96
2022/11/03 07:38:42;;;;;;;17.05;6.35;;;;;;;14.17;59.96;100511.06;4400783;32;20229;-96
2022/11/03 07:41:22;;;;;;;15.23;6.68;;;;;;;14.32;59.96;100507.91;4422411;32;20110;-96
2022/11/03 07:44:04;;;;;;;15.82;7.75;;;;;;;14.36;59.97;100507.75;4401230;32;20118;-96
2022/11/03 07:46:43;;;;;;;16.05;7.60;;;;;;;14.55;59.98;100502.75;4420749;32;20055;-96
2022/11/03 08:22:54;;;;;;;31.80;13.27;;;;;;;15.26;60.02;100485.19;5316491;26;20096;-93
2022/11/03 08:40:55;;;;;;;27.62;12.45;;;;;;;15.72;60.04;100481.59;5106402;26;20101;-96
2022/11/03 08:43:20;;;;;;;25.45;12.23;;;;;;;15.52;60.03;100471.88;4677637;26;20102;-96
2022/11/03 08:53:33;;;;;;;29.25;13.35;;;;;;;15.29;60.01;100467.56;5025466;26;20057;-96
2022/11/03 08:56:06;;;;;;;27.00;12.15;;;;;;;15.27;60.01;100463.31;4529260;26;20101;-96
2022/11/03 08:58:32;;;;;;;33.05;14.10;;;;;;;15.32;60.03;100469.22;4398001;32;20120;-96
2022/11/03 09:01:22;;;;;;;29.95;12.20;;;;;;;15.28;60.02;100460.63;4419523;32;20054;-96
2022/11/03 09:04:09;;;;;;;27.95;12.57;;;;;;;15.17;60.00;100464.59;4446505;32;20116;-96
2022/11/03 09:07:26;;;;;;;28.65;12.63;;;;;;;15.15;60.01;100463.81;4442833;32;20069;-94
2022/11/03 09:09:52;;;;;;;33.28;14.30;;;;;;;14.98;60.00;100464.44;4447628;32;20830;-95
2022/11/03 09:12:18;;;;;;;30.33;13.88;;;;;;;14.79;60.00;100458.19;4422622;32;20146;-95
2022/11/03 09:15:12;;;;;;;32.15;14.15;;;;;;;14.93;59.99;100463.78;4431171;32;20118;-95
2022/11/03 09:17:37;;;;;;;35.05;14.85;;;;;;;15.11;60.01;100452.56;4429932;32;20127;-96
2022/11/03 09:20:04;;;;;;;33.70;14.80;;;;;;;15.19;60.02;100452.28;4452976;32;25194;-96
2022/11/03 09:22:29;;;;;;;31.50;13.45;;;;;;;15.20;60.01;100446.97;4431050;32;20073;-95
2022/11/03 09:24:55;;;;;;;30.77;14.15;;;;;;;15.31;60.03;100460.50;4432541;32;20167;-96
2022/11/03 09:27:21;;;;;;;31.50;12.77;;;;;;;15.30;60.02;100455.31;4440482;32;20101;-96
2022/11/03 09:29:46;;;;;;;29.90;13.02;;;;;;;15.43;60.03;100453.91;4430742;32;20142;-96
2022/11/03 09:32:12;;;;;;;30.60;14.18;;;;;;;15.49;60.03;100448.41;4440925;32;20088;-96
2022/11/03 09:34:39;;;;;;;33.03;14.75;;;;;;;15.44;60.03;100446.87;4433870;32;20116;-96
2022/11/03 09:37:04;;;;;;;33.30;14.30;;;;;;;15.25;60.02;100446.78;4449308;32;20172;-96
2022/11/03 09:39:33;;;;;;;28.98;12.93;;;;;;;15.40;60.03;100446.16;4430030;32;20092;-96
2022/11/03 09:41:59;;;;;;;27.77;12.35;;;;;;;15.55;60.02;100439.41;4430952;32;20096;-96
2022/11/03 09:44:24;;;;;;;30.50;13.75;;;;;;;15.56;60.03;100430.63;4432241;32;20141;-96
2022/11/03 09:46:54;;;;;;;31.23;13.80;;;;;;;15.57;60.04;100433.19;4454656;32;20094;-96
2022/11/03 09:49:46;;;;;;;;;;;;;;;15.52;60.03;100429.06;4464788;32;20083;-96
2022/11/03 09:52:11;;;;;;;31.83;13.25;;;;;;;15.53;60.02;100428.97;4454015;32;20012;-96
2022/11/03 09:54:37;;;;;;;27.23;12.35;;;;;;;15.75;60.04;100422.88;4456063;32;20164;-96
2022/11/03 09:57:08;;;;;;;33.50;13.62;;;;;;;15.74;60.04;100416.78;4430720;32;20109;-96
2022/11/03 09:59:33;;;;;;;29.67;14.13;;;;;;;15.46;60.02;100414.44;4438872;32;20124;-96
2022/11/03 10:01:59;;;;;;;32.53;13.55;;;;;;;15.55;60.02;100414.03;4421278;32;28362;-96
2022/11/03 10:04:28;;;;;;;32.97;15.05;;;;;;;15.68;60.04;100413.56;4433157;32;20860;-96
2022/11/03 10:07:04;;;;;;;28.10;13.50;;;;;;;15.58;60.03;100405.16;4446716;32;20145;-96
2022/11/03 10:09:29;;;;;;;31.65;14.38;;;;;;;15.51;60.03;100396.72;4443674;32;20089;-96
2022/11/03 10:11:55;;;;;;;35.67;14.35;;;;;;;15.44;60.03;100392.66;4446995;32;20130;-96
2022/11/03 10:14:20;;;;;;;33.67;15.30;;;;;;;15.40;60.03;100390.22;4422962;32;20109;-95
2022/11/03 10:16:56;;;;;;;35.92;14.23;;;;;;;15.46;60.02;100389.97;4428627;32;20492;-96
2022/11/03 10:19:22;;;;;;;43.15;21.52;;;;;;;15.33;60.02;100384.34;4418952;32;20085;-95
2022/11/03 10:21:47;;;;;;;32.58;14.65;;;;;;;15.22;60.01;100370.84;4423471;32;20116;-96
2022/11/03 10:24:13;;;;;;;34.42;14.75;;;;;;;15.29;60.02;100367.03;4418944;32;20219;-96
2022/11/03 10:26:43;;;;;;;29.92;13.23;;;;;;;15.22;60.01;100373.47;4419881;32;20096;-95
2022/11/03 10:29:18;;;;;;;30.08;13.85;;;;;;;15.32;60.03;100372.16;4429649;32;20089;-95
2022/11/03 10:31:43;;;;;;;30.92;13.35;;;;;;;15.41;60.02;100373.56;4439299;32;20108;-96
2022/11/03 10:34:41;;;;;;;31.67;12.88;;;;;;;15.40;60.02;100364.84;4444504;32;20101;-96
2022/11/03 10:37:22;;;;;;;30.30;13.30;;;;;;;15.13;60.01;100364.19;4435588;32;20226;-95
2022/11/03 10:39:51;;;;;;;35.25;14.00;;;;;;;15.00;60.00;100368.25;4417539;32;20109;-96
2022/11/03 10:42:19;;;;;;;32.38;13.05;;;;;;;15.09;60.00;100367.00;4430086;32;20138;-96
2022/11/03 10:44:45;;;;;;;33.83;13.98;;;;;;;14.97;60.00;100363.97;4430745;32;20109;-96
2022/11/03 10:47:24;;;;;;;35.95;14.73;;;;;;;15.01;60.00;100349.81;4453381;32;20097;-96
2022/11/03 10:49:49;;;;;;;38.55;15.50;;;;;;;14.82;59.99;100346.22;4418301;32;20152;-96
2022/11/03 10:52:21;;;;;;;32.35;14.30;;;;;;;14.97;60.00;100344.78;4417508;32;20157;-95
2022/11/03 10:54:47;;;;;;;32.33;15.07;;;;;;;14.93;59.99;100337.97;4431678;32;20099;-95
2022/11/03 10:57:13;;;;;;;38.50;14.95;;;;;;;15.01;60.00;100341.09;4417510;32;20073;-95
2022/11/03 10:59:38;;;;;;;36.22;15.00;;;;;;;14.95;60.00;100329.09;4433763;32;20085;-95
2022/11/03 11:02:30;;;;;;;38.17;15.82;;;;;;;15.01;59.99;100330.62;4419747;32;20085;-96
2022/11/03 11:05:01;;;;;;;36.97;15.73;;;;;;;14.87;60.00;100330.31;4425747;32;20113;-96
2022/11/03 11:07:39;;;;;;;;;;;;;;;14.98;60.00;100326.34;4429896;32;20073;-96
2022/11/03 11:10:11;;;;;;;34.40;14.85;;;;;;;15.13;60.01;100319.59;4440742;32;19972;-96
2022/11/03 11:12:36;;;;;;;37.15;16.10;;;;;;;15.09;60.00;100314.56;4417104;32;20092;-96
2022/11/03 11:15:06;;;;;;;34.53;15.05;;;;;;;15.19;60.01;100310.66;4403366;32;20162;-96
2022/11/03 11:17:36;;;;;;;38.90;15.27;;;;;;;15.16;60.02;100306.41;4428397;32;20106;-95
2022/11/03 11:20:17;;;;;;;42.30;16.62;;;;;;;15.16;60.01;100313.41;4441263;32;20079;-96
2022/11/03 11:22:44;;;;;;;43.22;17.10;;;;;;;15.02;60.01;100304.34;4430799;32;20100;-96
2022/11/03 11:25:09;;;;;;;35.95;16.65;;;;;;;15.03;60.01;100303.41;4432553;32;20108;-95
2022/11/03 11:27:34;;;;;;;36.72;15.82;;;;;;;15.14;60.01;100291.63;4436811;32;27899;-96
2022/11/03 11:30:03;;;;;;;33.63;16.12;;;;;;;15.11;60.01;100292.59;4449055;32;20123;-95
2022/11/03 11:32:38;;;;;;;36.17;14.68;;;;;;;15.14;60.00;100287.25;4446147;32;20104;-95
2022/11/03 11:35:09;;;;;;;35.78;15.30;;;;;;;14.96;60.00;100286.25;4458636;32;20073;-96
2022/11/03 11:37:35;;;;;;;37.25;15.73;;;;;;;15.12;60.01;100283.81;4417058;32;20128;-96
2022/11/03 11:40:01;;;;;;;37.83;15.93;;;;;;;15.01;59.99;100278.19;4409041;32;20473;-96
2022/11/03 11:42:26;;;;;;;33.47;15.50;;;;;;;15.07;60.00;100271.81;4432841;32;20115;-96
2022/11/03 11:44:53;;;;;;;39.63;15.57;;;;;;;15.05;60.01;100270.13;4424024;32;20162;-96
2022/11/03 11:47:22;;;;;;;39.38;15.90;;;;;;;14.97;60.00;100268.75;4434246;32;20130;-96
2022/11/03 11:50:09;;;;;;;36.38;15.18;;;;;;;15.16;60.00;100264.44;4451032;32;20089;-96
2022/11/03 11:52:44;;;;;;;34.50;13.82;;;;;;;14.85;59.99;100262.22;4438426;32;20096;-95
2022/11/03 11:55:24;;;;;;;30.88;15.35;;;;;;;14.94;59.99;100263.63;4446524;32;20149;-95
2022/11/03 11:57:50;;;;;;;35.05;15.52;;;;;;;15.15;60.00;100261.88;4427610;32;20131;-96
2022/11/03 12:00:24;;;;;;;36.33;14.68;;;;;;;15.17;60.02;100255.66;4418216;32;20085;-96
2022/11/03 12:02:53;;;;;;;37.85;14.20;;;;;;;15.29;60.02;100249.88;4424314;32;20057;-96
2022/11/03 12:05:27;;;;;;;34.03;14.00;;;;;;;15.25;60.03;100243.06;4440508;32;20109;-96
2022/11/03 12:07:53;;;;;;;33.42;15.13;;;;;;;15.26;60.01;100236.03;4419743;32;20127;-96
2022/11/03 12:10:27;;;;;;;38.40;15.30;;;;;;;15.16;60.00;100234.75;4437556;32;20090;-96
2022/11/03 12:12:57;;;;;;;39.55;15.57;;;;;;;15.15;60.01;100228.66;4424574;32;20105;-96
2022/11/03 12:15:55;;;;;;;40.08;16.00;;;;;;;15.12;60.01;100222.66;4422502;32;20121;-96
2022/11/03 12:18:47;;;;;;;37.92;16.23;;;;;;;15.25;60.02;100218.59;4445710;32;20082;-95
2022/11/03 12:21:46;;;;;;;41.60;14.60;;;;;;;15.01;60.00;100223.97;4449339;32;20115;-96
2022/11/03 12:24:25;;;;;;;37.55;16.08;;;;;;;15.01;59.99;100216.13;4433724;32;20081;-96
2022/11/03 12:26:50;;;;;;;35.88;15.93;;;;;;;15.09;60.00;100221.03;4428169;32;20129;-96
2022/11/03 12:29:16;;;;;;;37.58;17.50;;;;;;;15.20;60.01;100208.31;4418157;32;20430;-95
2022/11/03 12:31:41;;;;;;;38.20;15.13;;;;;;;14.94;59.99;100216.47;4434356;32;20116;-95
2022/11/03 12:34:07;;;;;;;39.60;16.00;;;;;;;14.91;59.99;100206.97;4442804;32;20558;-96
2022/11/03 12:36:33;;;;;;;38.42;17.30;;;;;;;15.09;60.00;100200.06;4426065;32;20157;-96
2022/11/03 12:39:02;;;;;;;40.33;15.98;;;;;;;15.10;60.01;100199.13;4441102;32;20128;-96
2022/11/03 12:41:28;;;;;;;36.78;16.35;;;;;;;15.17;60.00;100197.97;4432872;32;20061;-96
2022/11/03 12:43:56;;;;;;;38.25;16.33;;;;;;;15.00;60.00;100192.59;4434736;32;20127;-95
2022/11/03 12:46:22;;;;;;;40.53;17.05;;;;;;;15.08;60.00;100197.50;4437099;32;20123;-96
2022/11/03 12:48:48;;;;;;;39.75;16.83;;;;;;;15.07;60.00;100188.78;4423749;32;20148;-95
2022/11/03 12:51:15;;;;;;;36.78;16.67;;;;;;;14.95;60.00;100190.19;4428429;32;20121;-96
2022/11/03 12:53:41;;;;;;;48.97;17.52;;;;;;;14.91;60.00;100185.13;4420220;32;20105;-95
2022/11/03 12:56:06;;;;;;;44.17;17.87;;;;;;;14.98;60.00;100183.94;4440378;32;20168;-96
2022/11/03 12:58:32;;;;;;;41.88;18.45;;;;;;;15.03;60.01;100182.81;4435963;32;20478;-96
2022/11/03 13:00:57;;;;;;;43.78;16.20;;;;;;;15.11;60.01;100181.62;4433260;32;20124;-96
2022/11/03 13:03:23;;;;;;;38.65;16.87;;;;;;;15.14;60.01;100171.88;4460159;32;20112;-95
2022/11/03 13:05:49;;;;;;;39.35;15.50;;;;;;;15.15;60.01;100176.22;4452197;32;20169;-96
2022/11/03 13:08:14;;;;;;;38.42;16.27;;;;;;;15.14;60.00;100178.88;4490052;26;20165;-91